Time;durP1;ratioP1;P1;durP2;ratioP2;P2;SDS_P1;SDS_P2;PMS_P1;PMS_P2;Temp;Humidity;BMP_temperature;BMP_pressure;BME280_temperature;BME280_humidity;BME280_pressure;Samples;Min_cycle;Max_cycle;Signal;HPM_P1;HPM_P2
2022/01/09 00:00:33;;;;;;;2.75;1.10;;;2.70;57.90;;;;;;5022076;28;46378;-66
2022/01/09 00:02:59;;;;;;;4.38;2.45;;;2.70;57.70;;;;;;5021533;28;46437;-66
2022/01/09 00:05:25;;;;;;;2.40;1.27;;;2.70;57.60;;;;;;5023442;28;46508;-68
2022/01/09 00:07:50;;;;;;;2.03;1.10;;;2.70;57.70;;;;;;5020973;28;46342;-68
2022/01/09 00:10:17;;;;;;;1.63;1.03;;;2.70;57.80;;;;;;5021956;28;46443;-67
2022/01/09 00:12:43;;;;;;;1.67;1.17;;;2.70;57.90;;;;;;5021768;28;46573;-67
2022/01/09 00:15:13;;;;;;;1.02;0.90;;;2.80;57.90;;;;;;5021940;28;46213;-68
2022/01/09 00:17:41;;;;;;;1.42;0.90;;;2.80;57.80;;;;;;5022052;28;49055;-67
2022/01/09 00:20:13;;;;;;;1.45;0.90;;;2.80;57.80;;;;;;5005682;28;45810;-67
2022/01/09 00:22:50;;;;;;;2.88;1.00;;;2.90;57.80;;;;;;5021780;28;46512;-68
2022/01/09 00:25:18;;;;;;;1.75;0.88;;;3.00;57.70;;;;;;5021384;28;46585;-66
2022/01/09 00:27:44;;;;;;;1.63;1.00;;;3.00;57.70;;;;;;5020649;28;48030;-66
2022/01/09 00:30:13;;;;;;;2.45;1.15;;;3.10;57.70;;;;;;5021298;28;46383;-66
2022/01/09 00:32:44;;;;;;;2.08;1.00;;;3.10;57.50;;;;;;5021486;28;46549;-67
2022/01/09 00:35:11;;;;;;;1.95;1.00;;;3.20;57.50;;;;;;5021683;28;46443;-68
2022/01/09 00:37:37;;;;;;;2.70;1.10;;;3.20;57.60;;;;;;5021043;28;47854;-68
2022/01/09 00:40:05;;;;;;;1.85;1.20;;;3.10;57.70;;;;;;5020454;28;46724;-67
2022/01/09 00:42:35;;;;;;;1.15;0.90;;;3.10;57.70;;;;;;5022391;28;46413;-67
2022/01/09 00:45:03;;;;;;;2.25;1.30;;;3.20;57.50;;;;;;5021548;28;46179;-68
2022/01/09 00:47:28;;;;;;;1.23;0.88;;;3.30;57.70;;;;;;5020443;28;49253;-67
2022/01/09 00:49:54;;;;;;;1.50;1.00;;;3.30;57.50;;;;;;5021071;28;46457;-67
2022/01/09 00:52:20;;;;;;;2.13;1.20;;;3.20;57.50;;;;;;5020967;28;46509;-67
2022/01/09 00:54:45;;;;;;;1.97;1.00;;;3.20;57.60;;;;;;5017830;28;46949;-68
2022/01/09 00:57:11;;;;;;;2.97;0.90;;;3.30;57.70;;;;;;5018304;28;48138;-67
2022/01/09 00:59:37;;;;;;;1.40;0.80;;;3.40;57.70;;;;;;5019245;28;46562;-66
2022/01/09 01:02:03;;;;;;;2.23;1.10;;;3.40;57.50;;;;;;5020750;28;46350;-66
2022/01/09 01:04:29;;;;;;;2.05;1.05;;;3.50;57.30;;;;;;5020727;28;46366;-69
2022/01/09 01:06:54;;;;;;;2.27;0.80;;;3.50;57.30;;;;;;5020747;28;48956;-67
2022/01/09 01:09:24;;;;;;;1.00;0.80;;;3.60;57.30;;;;;;5019877;28;46670;-68
2022/01/09 01:11:50;;;;;;;4.80;0.80;;;3.50;57.60;;;;;;5020491;28;46417;-68
2022/01/09 01:14:22;;;;;;;1.27;0.90;;;3.50;57.80;;;;;;5020465;28;46414;-68
2022/01/09 01:16:49;;;;;;;2.05;0.75;;;3.50;58.00;;;;;;5020392;28;46375;-69
2022/01/09 01:19:15;;;;;;;1.23;0.88;;;3.60;58.40;;;;;;5020685;28;46395;-69
2022/01/09 01:21:41;;;;;;;0.80;0.70;;;3.60;58.30;;;;;;5020208;28;46354;-68
2022/01/09 01:24:06;;;;;;;2.10;0.90;;;3.70;58.10;;;;;;5021110;28;46447;-69
2022/01/09 01:26:35;;;;;;;1.77;1.00;;;3.80;58.10;;;;;;5020483;28;48793;-69
2022/01/09 01:29:01;;;;;;;1.65;0.82;;;3.80;58.20;;;;;;5020431;28;46338;-69
2022/01/09 01:31:28;;;;;;;0.90;0.73;;;3.80;58.60;;;;;;5020583;28;46358;-68
2022/01/09 01:33:54;;;;;;;2.83;1.00;;;3.80;58.60;;;;;;5020639;28;46484;-69
2022/01/09 01:36:25;;;;;;;1.63;0.70;;;3.80;58.80;;;;;;5020176;28;47762;-69
2022/01/09 01:38:50;;;;;;;1.42;0.80;;;3.90;59.20;;;;;;5019588;28;46389;-69
2022/01/09 01:41:19;;;;;;;1.67;0.93;;;3.90;59.20;;;;;;5020671;28;46299;-69
2022/01/09 01:43:44;;;;;;;6.63;1.02;;;3.90;59.30;;;;;;5020677;28;46451;-69
2022/01/09 01:46:10;;;;;;;0.90;0.70;;;3.90;59.50;;;;;;5020200;28;47722;-70
2022/01/09 01:48:36;;;;;;;1.20;0.80;;;4.00;59.60;;;;;;5019897;28;46617;-71
2022/01/09 01:51:02;;;;;;;1.30;0.80;;;4.10;59.50;;;;;;5020060;28;46425;-69
2022/01/09 01:53:28;;;;;;;2.10;0.90;;;4.20;59.50;;;;;;5020208;28;46033;-69
2022/01/09 01:55:56;;;;;;;1.65;0.75;;;4.20;59.40;;;;;;5020279;28;48086;-69
2022/01/09 01:58:26;;;;;;;1.33;0.80;;;4.30;59.50;;;;;;5019366;28;46449;-69
2022/01/09 02:00:53;;;;;;;1.35;1.05;;;4.30;59.70;;;;;;5019660;28;45870;-70
2022/01/09 02:03:21;;;;;;;3.60;1.67;;;4.30;59.90;;;;;;5018918;28;46676;-69
2022/01/09 02:05:49;;;;;;;1.20;0.80;;;4.30;60.00;;;;;;5019613;28;48242;-69
2022/01/09 02:08:14;;;;;;;2.47;1.20;;;4.30;60.40;;;;;;5019291;28;46306;-69
2022/01/09 02:10:42;;;;;;;1.60;0.90;;;4.40;60.60;;;;;;5020646;28;46429;-68
2022/01/09 02:13:08;;;;;;;1.10;0.80;;;4.40;60.60;;;;;;5019356;28;46207;-68
2022/01/09 02:15:42;;;;;;;1.10;0.70;;;4.30;60.50;;;;;;5019331;28;47779;-70
2022/01/09 02:18:10;;;;;;;1.48;0.70;;;4.30;61.30;;;;;;5019221;28;46331;-67
2022/01/09 02:20:36;;;;;;;2.42;0.80;;;4.20;61.50;;;;;;5019442;28;46299;-69
2022/01/09 02:23:04;;;;;;;1.20;0.77;;;4.20;62.10;;;;;;5019800;28;46449;-69
2022/01/09 02:25:32;;;;;;;1.30;0.80;;;4.20;62.00;;;;;;5019698;28;48657;-69
2022/01/09 02:27:57;;;;;;;1.00;0.73;;;4.30;62.00;;;;;;5020104;28;46486;-69
2022/01/09 02:30:24;;;;;;;1.13;0.73;;;4.30;62.30;;;;;;5019012;28;46402;-68
2022/01/09 02:32:49;;;;;;;1.33;0.90;;;4.20;62.40;;;;;;5019437;28;46410;-68
2022/01/09 02:35:15;;;;;;;1.13;0.70;;;4.10;62.90;;;;;;5019637;28;47967;-68
2022/01/09 02:37:41;;;;;;;1.17;0.80;;;4.10;63.00;;;;;;5019768;28;46457;-68
2022/01/09 02:40:08;;;;;;;1.27;0.80;;;4.10;63.10;;;;;;5019825;28;45835;-69
2022/01/09 02:42:34;;;;;;;1.37;0.70;;;4.10;63.40;;;;;;5020896;28;46330;-69
2022/01/09 02:45:03;;;;;;;2.55;0.93;;;4.00;63.50;;;;;;5019246;28;48114;-67
2022/01/09 02:47:32;;;;;;;1.10;0.80;;;4.00;63.70;;;;;;5020543;28;46463;-68
2022/01/09 02:50:06;;;;;;;2.20;0.95;;;4.00;63.90;;;;;;5019362;28;46443;-69
2022/01/09 02:52:47;;;;;;;1.20;0.90;;;3.90;64.40;;;;;;5019455;28;45891;-68
2022/01/09 02:55:25;;;;;;;1.10;0.90;;;3.90;64.90;;;;;;5019699;28;47759;-69
2022/01/09 02:57:59;;;;;;;1.83;0.80;;;3.90;65.00;;;;;;5019067;28;46440;-68
2022/01/09 03:00:27;;;;;;;1.10;0.75;;;3.90;64.90;;;;;;5019803;28;46604;-66
2022/01/09 03:02:56;;;;;;;1.15;0.80;;;3.90;65.10;;;;;;5019275;28;46871;-69
2022/01/09 03:05:23;;;;;;;2.40;0.80;;;3.90;65.20;;;;;;5019185;28;48001;-69
2022/01/09 03:07:49;;;;;;;0.90;0.70;;;3.90;65.00;;;;;;5019457;28;46368;-67
2022/01/09 03:10:17;;;;;;;1.52;0.70;;;3.90;64.90;;;;;;5019633;28;46426;-69
2022/01/09 03:12:44;;;;;;;1.03;0.70;;;3.90;64.80;;;;;;5019231;28;46592;-68
2022/01/09 03:15:10;;;;;;;2.13;0.80;;;3.90;65.00;;;;;;5022311;28;48917;-68
2022/01/09 03:17:37;;;;;;;1.23;0.73;;;3.80;65.20;;;;;;5024224;28;46476;-67
2022/01/09 03:20:08;;;;;;;0.93;0.70;;;3.80;65.40;;;;;;5021023;28;46452;-68
2022/01/09 03:22:34;;;;;;;1.05;0.70;;;3.80;65.80;;;;;;5021846;28;46347;-69
2022/01/09 03:24:59;;;;;;;1.07;0.83;;;3.70;66.30;;;;;;5022704;28;48678;-68
2022/01/09 03:27:25;;;;;;;2.37;0.80;;;3.70;66.70;;;;;;5023048;28;46633;-68
2022/01/09 03:29:53;;;;;;;0.80;0.50;;;3.80;67.00;;;;;;5022719;28;46470;-67
2022/01/09 03:32:19;;;;;;;1.40;0.57;;;3.80;67.20;;;;;;5022958;28;46908;-67
2022/01/09 03:34:45;;;;;;;0.80;0.50;;;3.80;67.50;;;;;;5022846;28;48049;-69
2022/01/09 03:37:11;;;;;;;0.90;0.60;;;3.80;67.50;;;;;;5022214;28;46373;-69
2022/01/09 03:39:37;;;;;;;0.87;0.60;;;3.80;67.50;;;;;;5022323;28;46486;-69
2022/01/09 03:42:02;;;;;;;1.20;0.60;;;3.80;67.70;;;;;;5022418;28;46507;-69
2022/01/09 03:44:31;;;;;;;0.80;0.60;;;3.90;67.90;;;;;;5022040;28;47754;-69
2022/01/09 03:46:57;;;;;;;0.70;0.50;;;3.90;68.10;;;;;;5022996;28;46529;-68
2022/01/09 03:49:26;;;;;;;0.90;0.60;;;3.90;68.20;;;;;;5022294;28;46445;-69
2022/01/09 03:51:53;;;;;;;0.70;0.50;;;4.00;68.00;;;;;;5020920;28;46374;-68
2022/01/09 03:54:22;;;;;;;3.05;0.60;;;4.10;68.00;;;;;;5022277;28;47919;-68
2022/01/09 03:56:49;;;;;;;1.60;0.75;;;4.20;67.90;;;;;;5022605;28;46382;-66
2022/01/09 03:59:19;;;;;;;2.07;0.60;;;4.30;67.90;;;;;;5021841;28;45879;-68
2022/01/09 04:01:46;;;;;;;1.00;0.67;;;4.30;67.70;;;;;;5021068;28;46437;-69
2022/01/09 04:04:12;;;;;;;0.80;0.60;;;4.40;69.00;;;;;;5021315;28;48612;-67
2022/01/09 04:06:44;;;;;;;1.20;0.60;;;4.40;67.70;;;;;;5021762;28;46429;-69
2022/01/09 04:09:28;;;;;;;1.00;0.60;;;4.50;67.60;;;;;;5021538;28;46468;-67
2022/01/09 04:12:03;;;;;;;1.47;0.70;;;4.50;67.50;;;;;;5021609;28;46478;-66
2022/01/09 04:14:29;;;;;;;0.97;0.60;;;4.60;67.40;;;;;;5021134;28;49035;-68
2022/01/09 04:16:55;;;;;;;1.00;0.60;;;4.60;67.20;;;;;;5020771;28;46455;-68
2022/01/09 04:19:21;;;;;;;1.53;0.70;;;4.70;67.40;;;;;;5021744;28;46490;-69
2022/01/09 04:21:50;;;;;;;0.70;0.50;;;4.60;67.30;;;;;;5021448;28;46510;-69
2022/01/09 04:24:15;;;;;;;0.80;0.63;;;4.60;67.50;;;;;;5021232;28;48788;-67
2022/01/09 04:26:41;;;;;;;0.83;0.60;;;4.50;67.70;;;;;;5021639;28;46288;-68
2022/01/09 04:29:07;;;;;;;1.47;0.70;;;4.60;68.10;;;;;;5022038;28;46520;-67
2022/01/09 04:31:32;;;;;;;0.90;0.60;;;4.50;68.10;;;;;;5021842;28;46354;-69
2022/01/09 04:33:58;;;;;;;0.83;0.60;;;4.50;68.20;;;;;;5021658;28;48904;-68
2022/01/09 04:36:24;;;;;;;0.80;0.53;;;4.60;68.10;;;;;;5021544;28;46428;-68
2022/01/09 04:38:51;;;;;;;0.93;0.60;;;4.60;68.20;;;;;;5023386;28;46500;-67
2022/01/09 04:41:19;;;;;;;0.90;0.63;;;4.60;68.20;;;;;;5025516;28;46433;-68
2022/01/09 04:43:46;;;;;;;0.90;0.63;;;4.60;68.00;;;;;;5024274;28;46187;-68
2022/01/09 04:46:19;;;;;;;1.15;0.60;;;4.80;68.00;;;;;;5022552;28;46485;-68
2022/01/09 04:48:46;;;;;;;1.00;0.60;;;4.80;67.70;;;;;;5023620;28;46412;-68
2022/01/09 04:51:14;;;;;;;1.63;0.80;;;4.80;67.70;;;;;;5024377;28;46365;-68
2022/01/09 04:53:39;;;;;;;0.90;0.60;;;4.80;67.70;;;;;;5022169;28;47915;-69
2022/01/09 04:56:05;;;;;;;1.37;0.60;;;4.90;67.70;;;;;;5022455;28;46425;-69
2022/01/09 04:58:31;;;;;;;1.93;0.70;;;4.90;67.70;;;;;;5021852;28;46657;-68
2022/01/09 05:00:56;;;;;;;0.90;0.60;;;4.90;67.50;;;;;;5021922;28;46552;-68
2022/01/09 05:03:22;;;;;;;2.23;0.80;;;4.90;67.50;;;;;;5020876;28;47955;-69
2022/01/09 05:05:51;;;;;;;1.13;0.60;;;4.90;67.60;;;;;;5021411;28;46393;-69
2022/01/09 05:08:16;;;;;;;0.80;0.60;;;4.90;67.50;;;;;;5021147;28;46383;-69
2022/01/09 05:10:42;;;;;;;1.20;0.73;;;4.80;67.60;;;;;;5020827;28;46300;-68
2022/01/09 05:13:07;;;;;;;0.70;0.60;;;4.80;67.70;;;;;;5021623;28;46394;-69
2022/01/09 05:15:33;;;;;;;1.00;0.60;;;4.80;67.80;;;;;;5022300;28;46612;-67
2022/01/09 05:18:04;;;;;;;0.80;0.60;;;4.80;67.70;;;;;;5020608;28;46436;-70
2022/01/09 05:20:30;;;;;;;3.43;0.70;;;4.90;67.60;;;;;;5020693;28;46347;-69
2022/01/09 05:22:55;;;;;;;1.07;0.70;;;4.80;67.60;;;;;;5019788;28;48822;-68
2022/01/09 05:25:22;;;;;;;0.80;0.60;;;4.90;67.60;;;;;;5018305;28;46450;-69
2022/01/09 05:27:49;;;;;;;1.63;0.70;;;4.80;67.50;;;;;;5020667;28;46572;-68
2022/01/09 05:30:15;;;;;;;1.13;0.60;;;4.80;67.60;;;;;;5020342;28;46437;-69
2022/01/09 05:32:46;;;;;;;0.70;0.60;;;4.90;67.60;;;;;;5020164;28;47764;-68
2022/01/09 05:35:11;;;;;;;1.00;0.70;;;4.80;67.50;;;;;;5019817;28;45838;-68
2022/01/09 05:37:37;;;;;;;1.10;0.70;;;4.90;67.50;;;;;;5019236;28;46585;-69
2022/01/09 05:40:03;;;;;;;0.90;0.60;;;4.80;67.60;;;;;;5020664;28;46432;-68
2022/01/09 05:42:29;;;;;;;0.80;0.50;;;4.80;67.50;;;;;;5020381;28;46597;-68
2022/01/09 05:44:54;;;;;;;0.70;0.50;;;4.70;67.40;;;;;;5020950;28;46691;-68
2022/01/09 05:47:20;;;;;;;1.00;0.60;;;4.80;67.70;;;;;;5020143;28;45925;-68
2022/01/09 05:49:46;;;;;;;0.90;0.70;;;4.70;67.70;;;;;;5021938;28;46540;-68
2022/01/09 05:52:14;;;;;;;0.80;0.60;;;4.70;67.80;;;;;;5020131;28;47922;-68
2022/01/09 05:54:39;;;;;;;0.73;0.53;;;4.70;67.80;;;;;;5021188;28;46366;-68
2022/01/09 05:57:05;;;;;;;0.70;0.60;;;4.70;68.00;;;;;;5017286;28;46309;-69
2022/01/09 05:59:31;;;;;;;0.80;0.60;;;4.70;68.00;;;;;;5020316;28;46442;-67
2022/01/09 06:01:57;;;;;;;1.73;0.60;;;4.60;68.20;;;;;;5020519;28;48926;-67
2022/01/09 06:04:23;;;;;;;1.48;0.50;;;4.60;68.30;;;;;;5020102;28;46405;-69
2022/01/09 06:06:49;;;;;;;0.70;0.50;;;4.50;68.30;;;;;;5021994;28;46517;-69
2022/01/09 06:09:15;;;;;;;0.70;0.50;;;4.50;68.50;;;;;;5021284;28;46414;-69
2022/01/09 06:11:41;;;;;;;8.20;4.80;;;4.50;68.80;;;;;;5020078;28;47918;-69
2022/01/09 06:14:07;;;;;;;31.33;12.50;;;4.50;68.70;;;;;;5019811;28;46518;-69
2022/01/09 06:16:33;;;;;;;10.23;6.00;;;4.50;68.70;;;;;;5019937;28;46331;-68
2022/01/09 06:18:59;;;;;;;2.17;1.73;;;4.40;68.70;;;;;;5020155;28;46315;-67
2022/01/09 06:21:27;;;;;;;1.60;1.50;;;4.50;68.80;;;;;;5019887;28;47790;-69
2022/01/09 06:23:53;;;;;;;0.80;0.60;;;4.40;68.80;;;;;;5019738;28;46336;-69
2022/01/09 06:26:19;;;;;;;1.83;0.80;;;4.50;68.70;;;;;;5021821;28;46701;-68
2022/01/09 06:28:44;;;;;;;1.33;0.70;;;4.40;68.80;;;;;;5020202;28;45945;-69
2022/01/09 06:31:16;;;;;;;0.90;0.70;;;4.40;69.00;;;;;;5020617;28;48293;-68
2022/01/09 06:33:42;;;;;;;0.80;0.50;;;4.40;69.00;;;;;;5019430;28;45886;-69
2022/01/09 06:36:07;;;;;;;0.70;0.50;;;4.40;69.00;;;;;;5019198;28;46396;-69
2022/01/09 06:38:33;;;;;;;0.70;0.50;;;4.40;69.20;;;;;;5019309;28;46497;-68
2022/01/09 06:40:59;;;;;;;0.70;0.50;;;4.30;69.30;;;;;;5019416;28;48049;-69
2022/01/09 06:43:25;;;;;;;1.00;0.60;;;4.20;69.50;;;;;;5019309;28;46275;-68
2022/01/09 06:45:50;;;;;;;0.70;0.50;;;4.20;69.60;;;;;;5019018;28;46494;-67
2022/01/09 06:48:16;;;;;;;0.70;0.50;;;4.20;69.70;;;;;;5019209;28;46778;-70
2022/01/09 06:50:44;;;;;;;0.70;0.50;;;4.10;69.80;;;;;;5002742;28;47992;-69
2022/01/09 06:53:10;;;;;;;0.80;0.50;;;4.00;69.90;;;;;;5018270;28;46496;-70
2022/01/09 06:55:36;;;;;;;0.70;0.50;;;3.90;70.20;;;;;;5020000;28;46370;-69
2022/01/09 06:58:02;;;;;;;0.70;0.50;;;3.80;70.70;;;;;;5019437;28;46362;-69
2022/01/09 07:00:27;;;;;;;0.70;0.53;;;3.70;71.20;;;;;;5019345;28;46385;-69
2022/01/09 07:02:53;;;;;;;0.90;0.50;;;3.60;71.50;;;;;;5019547;28;46416;-69
2022/01/09 07:05:21;;;;;;;1.27;0.60;;;3.60;71.70;;;;;;5018848;28;46406;-70
2022/01/09 07:07:47;;;;;;;0.70;0.50;;;3.50;71.90;;;;;;5018499;28;46486;-70
2022/01/09 07:10:13;;;;;;;0.90;0.77;;;3.40;72.30;;;;;;5019315;28;48000;-68
2022/01/09 07:12:39;;;;;;;1.33;0.65;;;3.40;72.30;;;;;;5018041;28;46417;-69
2022/01/09 07:15:06;;;;;;;0.80;0.60;;;3.40;72.30;;;;;;5018868;28;46324;-70
2022/01/09 07:17:33;;;;;;;0.80;0.57;;;3.40;72.30;;;;;;5018280;28;45939;-70
2022/01/09 07:19:58;;;;;;;1.17;0.60;;;3.40;72.30;;;;;;5019543;28;46725;-69
2022/01/09 07:22:24;;;;;;;0.70;0.60;;;3.40;72.40;;;;;;5018587;28;46514;-70
2022/01/09 07:24:50;;;;;;;0.93;0.70;;;3.40;72.30;;;;;;5019152;28;46392;-70
2022/01/09 07:27:16;;;;;;;0.90;0.60;;;3.50;72.30;;;;;;5019426;28;46461;-69
2022/01/09 07:29:44;;;;;;;0.90;0.60;;;3.50;72.30;;;;;;5018909;28;48116;-68
2022/01/09 07:32:10;;;;;;;0.90;0.60;;;3.60;72.50;;;;;;5018670;28;46320;-67
2022/01/09 07:34:38;;;;;;;0.80;0.50;;;3.60;72.40;;;;;;5018983;28;45782;-70
2022/01/09 07:37:06;;;;;;;0.90;0.60;;;3.60;72.40;;;;;;5018894;28;46505;-70
2022/01/09 07:39:34;;;;;;;0.70;0.60;;;3.60;72.50;;;;;;5019235;28;47068;-70
2022/01/09 07:42:00;;;;;;;0.85;0.70;;;3.60;72.50;;;;;;5018685;28;46477;-69
2022/01/09 07:44:26;;;;;;;0.88;0.70;;;3.60;72.50;;;;;;5019080;28;46404;-69
2022/01/09 07:46:52;;;;;;;1.00;0.70;;;3.60;72.40;;;;;;5019164;28;46744;-70
2022/01/09 07:49:18;;;;;;;1.90;0.60;;;3.60;72.50;;;;;;5018535;28;47811;-69
2022/01/09 07:51:44;;;;;;;0.80;0.60;;;3.60;72.50;;;;;;5019053;28;46370;-69
2022/01/09 07:54:10;;;;;;;0.70;0.50;;;3.70;72.50;;;;;;5018851;28;46500;-70
2022/01/09 07:56:36;;;;;;;0.80;0.70;;;3.70;72.20;;;;;;5018151;28;46437;-69
2022/01/09 07:59:01;;;;;;;0.90;0.60;;;3.80;72.20;;;;;;5018199;28;47951;-69
2022/01/09 08:01:27;;;;;;;1.00;0.60;;;3.80;71.90;;;;;;5022087;28;46454;-68
2022/01/09 08:03:53;;;;;;;1.27;0.90;;;3.90;71.90;;;;;;5021382;28;46426;-68
2022/01/09 08:06:19;;;;;;;2.13;1.00;;;3.90;72.00;;;;;;5022490;28;46275;-69
2022/01/09 08:08:44;;;;;;;1.67;0.73;;;3.90;71.80;;;;;;5021211;28;47782;-69
2022/01/09 08:11:10;;;;;;;0.70;0.50;;;4.00;72.00;;;;;;5021685;28;46486;-70
2022/01/09 08:13:36;;;;;;;0.93;0.60;;;4.00;71.90;;;;;;5020896;28;46470;-70
2022/01/09 08:16:01;;;;;;;1.10;0.60;;;4.10;72.10;;;;;;5021886;28;46529;-69
2022/01/09 08:18:27;;;;;;;1.00;0.60;;;4.10;71.90;;;;;;5022534;28;48015;-68
2022/01/09 08:20:53;;;;;;;0.90;0.80;;;4.10;71.90;;;;;;5021928;28;46409;-68
2022/01/09 08:23:18;;;;;;;0.97;0.60;;;4.10;72.00;;;;;;5021976;28;46319;-67
2022/01/09 08:25:45;;;;;;;1.63;0.70;;;4.10;71.90;;;;;;5022792;28;46683;-68
2022/01/09 08:28:13;;;;;;;0.80;0.60;;;4.20;72.00;;;;;;5021921;28;47887;-67
2022/01/09 08:30:39;;;;;;;1.38;0.90;;;4.20;72.00;;;;;;5021464;28;45876;-67
2022/01/09 08:33:08;;;;;;;0.80;0.60;;;4.30;71.90;;;;;;5020992;28;46354;-68
2022/01/09 08:35:33;;;;;;;0.80;0.60;;;4.20;71.70;;;;;;5021357;28;46640;-68
2022/01/09 08:38:04;;;;;;;1.10;0.60;;;4.30;71.70;;;;;;5020620;28;49039;-68
2022/01/09 08:40:34;;;;;;;0.70;0.60;;;4.30;71.90;;;;;;5021107;28;46441;-68
2022/01/09 08:43:00;;;;;;;0.70;0.60;;;4.30;71.90;;;;;;5022459;28;46516;-67
2022/01/09 08:45:25;;;;;;;1.00;0.70;;;4.40;71.90;;;;;;5021062;28;46774;-67
2022/01/09 08:47:51;;;;;;;1.00;0.67;;;4.40;71.70;;;;;;5021206;28;47878;-68
2022/01/09 08:50:20;;;;;;;1.00;0.90;;;4.40;71.80;;;;;;5021616;28;46374;-67
2022/01/09 08:52:46;;;;;;;1.17;0.63;;;4.30;71.90;;;;;;5020715;28;46365;-68
2022/01/09 08:55:13;;;;;;;0.80;0.60;;;4.40;72.00;;;;;;5021285;28;46542;-68
2022/01/09 08:57:39;;;;;;;1.23;0.70;;;4.50;71.90;;;;;;5021021;28;48768;-68
2022/01/09 09:00:06;;;;;;;1.33;0.80;;;4.50;71.90;;;;;;5022420;28;46436;-69
2022/01/09 09:02:32;;;;;;;3.90;0.70;;;4.60;71.70;;;;;;5020610;28;46634;-69
2022/01/09 09:05:06;;;;;;;0.90;0.60;;;4.60;71.70;;;;;;5021177;28;46422;-67
2022/01/09 09:07:32;;;;;;;0.90;0.60;;;4.50;71.60;;;;;;5020543;28;46426;-69
2022/01/09 09:10:03;;;;;;;0.80;0.60;;;4.50;71.70;;;;;;5020198;28;46370;-67
2022/01/09 09:12:29;;;;;;;5.85;0.77;;;4.50;72.00;;;;;;5019401;28;46420;-69
2022/01/09 09:14:55;;;;;;;1.03;0.67;;;4.50;72.00;;;;;;5020809;28;46504;-69
2022/01/09 09:17:23;;;;;;;1.13;0.70;;;4.50;71.80;;;;;;5016942;28;48070;-66
2022/01/09 09:19:48;;;;;;;2.65;0.60;;;4.50;71.70;;;;;;5018172;28;46445;-67
2022/01/09 09:22:17;;;;;;;1.40;0.70;;;4.50;71.80;;;;;;5020331;28;45762;-67
2022/01/09 09:24:46;;;;;;;3.37;1.03;;;4.50;71.80;;;;;;5020745;28;46576;-67
2022/01/09 09:27:12;;;;;;;1.00;0.80;;;4.50;72.10;;;;;;5019968;28;48945;-68
2022/01/09 09:29:40;;;;;;;1.73;0.80;;;4.40;72.10;;;;;;5020954;28;46462;-69
2022/01/09 09:32:08;;;;;;;1.17;0.70;;;4.30;73.30;;;;;;5020526;28;46392;-67
2022/01/09 09:34:36;;;;;;;2.23;0.90;;;4.30;72.10;;;;;;5020581;28;46498;-66
2022/01/09 09:37:02;;;;;;;1.00;0.60;;;4.20;72.40;;;;;;5020217;28;47744;-68
2022/01/09 09:39:27;;;;;;;1.10;0.67;;;4.10;72.90;;;;;;5020295;28;46092;-68
2022/01/09 09:41:54;;;;;;;1.57;0.67;;;3.90;72.80;;;;;;5020042;28;46425;-66
2022/01/09 09:44:20;;;;;;;1.93;0.80;;;3.90;72.70;;;;;;5019785;28;46370;-65
2022/01/09 09:46:50;;;;;;;1.20;0.70;;;4.00;72.80;;;;;;5014064;28;47810;-68
2022/01/09 09:49:17;;;;;;;1.07;0.70;;;4.10;72.90;;;;;;5020732;28;45849;-65
2022/01/09 09:51:46;;;;;;;1.17;0.70;;;4.20;72.60;;;;;;5025843;28;46454;-66
2022/01/09 09:54:14;;;;;;;1.50;1.00;;;4.20;72.30;;;;;;5019168;28;46283;-66
2022/01/09 09:56:39;;;;;;;1.57;0.90;;;4.20;72.40;;;;;;5018728;28;48050;-66
2022/01/09 09:59:05;;;;;;;2.57;1.03;;;4.40;72.00;;;;;;5019388;28;46458;-65
2022/01/09 10:01:35;;;;;;;2.10;0.90;;;4.50;72.90;;;;;;5019669;28;46512;-67
2022/01/09 10:04:04;;;;;;;6.90;3.17;;;4.60;71.50;;;;;;5016559;28;46370;-67
2022/01/09 10:06:42;;;;;;;3.73;1.60;;;4.80;71.30;;;;;;5018548;28;48889;-69
2022/01/09 10:09:11;;;;;;;2.95;1.30;;;4.90;71.20;;;;;;5019632;28;46472;-66
2022/01/09 10:11:46;;;;;;;2.97;1.27;;;5.10;71.10;;;;;;5017922;28;46544;-66
2022/01/09 10:14:29;;;;;;;2.60;1.00;;;5.40;70.70;;;;;;5018470;28;46493;-66
2022/01/09 10:17:13;;;;;;;1.07;0.90;;;5.70;70.60;;;;;;5018541;28;47953;-67
2022/01/09 10:19:54;;;;;;;1.50;1.20;;;5.90;70.30;;;;;;5017523;28;46371;-66
2022/01/09 10:22:32;;;;;;;3.27;1.67;;;5.90;70.00;;;;;;5016521;28;46366;-66
2022/01/09 10:25:17;;;;;;;2.83;1.40;;;6.00;71.50;;;;;;5019636;28;45898;-65
2022/01/09 10:27:42;;;;;;;1.47;1.20;;;6.10;70.10;;;;;;5016166;28;46548;-66
2022/01/09 10:30:08;;;;;;;4.37;1.00;;;6.20;70.10;;;;;;5018975;28;46458;-66
2022/01/09 10:32:37;;;;;;;4.00;0.97;;;6.20;70.00;;;;;;5016197;28;45910;-65
2022/01/09 10:35:09;;;;;;;2.00;1.00;;;6.20;69.40;;;;;;5016726;28;46384;-65
2022/01/09 10:37:36;;;;;;;1.60;0.97;;;6.10;70.00;;;;;;5017252;28;46405;-67
2022/01/09 10:40:05;;;;;;;2.97;1.13;;;6.10;71.30;;;;;;5016998;28;46407;-67
2022/01/09 10:42:32;;;;;;;4.17;1.10;;;6.20;70.00;;;;;;5018291;28;46497;-65
2022/01/09 10:45:25;;;;;;;2.80;1.10;;;6.20;69.80;;;;;;5018010;28;46458;-65
2022/01/09 10:48:06;;;;;;;4.60;1.00;;;6.10;69.80;;;;;;5018120;28;46664;-65
2022/01/09 10:50:37;;;;;;;2.00;1.00;;;6.00;69.70;;;;;;5017545;28;46358;-66
2022/01/09 10:53:19;;;;;;;2.23;1.00;;;5.60;68.50;;;;;;5016259;28;45920;-66
2022/01/09 10:56:02;;;;;;;2.23;1.20;;;5.50;69.10;;;;;;5017404;28;46471;-65
2022/01/09 10:58:34;;;;;;;3.73;1.00;;;5.40;68.60;;;;;;5017890;28;46424;-66
2022/01/09 11:01:14;;;;;;;3.67;0.90;;;5.10;68.80;;;;;;5015588;28;46311;-66
2022/01/09 11:03:49;;;;;;;1.57;0.80;;;4.80;69.10;;;;;;5018131;28;46387;-66
2022/01/09 11:06:16;;;;;;;1.90;0.93;;;4.70;69.70;;;;;;5018068;28;46439;-66
2022/01/09 11:08:46;;;;;;;1.33;0.90;;;4.70;70.10;;;;;;5017791;28;48231;-65
2022/01/09 11:11:29;;;;;;;6.33;1.20;;;4.90;69.70;;;;;;5017876;28;46370;-67
2022/01/09 11:13:57;;;;;;;1.57;1.00;;;5.10;69.40;;;;;;5017806;28;46502;-66
2022/01/09 11:16:41;;;;;;;4.70;1.00;;;5.40;68.70;;;;;;5019162;28;46416;-66
2022/01/09 11:19:06;;;;;;;1.63;0.90;;;5.70;68.00;;;;;;5018809;28;47966;-65
2022/01/09 11:21:33;;;;;;;4.10;1.17;;;5.70;67.60;;;;;;5017928;28;46733;-66
2022/01/09 11:24:08;;;;;;;1.13;0.70;;;5.70;67.60;;;;;;5017280;28;46466;-65
2022/01/09 11:27:05;;;;;;;2.00;0.90;;;5.70;67.60;;;;;;5018425;28;46311;-66
2022/01/09 11:29:36;;;;;;;2.97;0.90;;;5.80;67.40;;;;;;5019126;28;46408;-67
2022/01/09 11:32:23;;;;;;;2.73;0.80;;;5.80;67.20;;;;;;5018075;28;46314;-66
2022/01/09 11:35:24;;;;;;;1.73;1.07;;;5.20;66.30;;;;;;5020723;28;46563;-66
2022/01/09 11:38:30;;;;;;;10.70;1.23;;;5.10;67.10;;;;;;4984289;28;46573;-66
2022/01/09 11:41:14;;;;;;;2.60;1.03;;;4.90;67.10;;;;;;5011923;28;46402;-63
2022/01/09 11:43:53;;;;;;;4.20;0.90;;;4.80;67.00;;;;;;5022240;28;46624;-64
2022/01/09 11:46:19;;;;;;;3.33;1.10;;;4.80;67.10;;;;;;5020765;28;46493;-65
2022/01/09 11:48:51;;;;;;;7.80;1.40;;;4.90;67.00;;;;;;5021485;28;46470;-65
2022/01/09 11:51:25;;;;;;;8.13;1.53;;;5.10;66.60;;;;;;5020700;28;48181;-66
2022/01/09 11:53:57;;;;;;;4.93;1.43;;;5.30;66.10;;;;;;5022032;28;46784;-63
2022/01/09 11:56:41;;;;;;;3.10;0.90;;;5.40;66.30;;;;;;5021619;28;46433;-64
2022/01/09 11:59:19;;;;;;;3.53;1.27;;;5.40;66.00;;;;;;5019643;28;46426;-65
2022/01/09 12:01:46;;;;;;;1.77;0.90;;;5.40;66.00;;;;;;5020626;28;46346;-64
2022/01/09 12:04:30;;;;;;;4.80;1.10;;;5.30;65.50;;;;;;5019739;28;46482;-66
2022/01/09 12:07:03;;;;;;;2.83;1.37;;;5.20;65.70;;;;;;5028303;28;46701;-64
2022/01/09 12:09:36;;;;;;;2.13;1.00;;;5.20;66.00;;;;;;5021579;28;46577;-64
2022/01/09 12:12:12;;;;;;;5.50;1.03;;;5.40;66.00;;;;;;5020799;28;47990;-65
2022/01/09 12:14:54;;;;;;;3.37;0.90;;;5.40;65.80;;;;;;5021792;28;46525;-65
2022/01/09 12:17:23;;;;;;;8.30;1.57;;;5.50;65.70;;;;;;5021445;28;46387;-65
2022/01/09 12:20:09;;;;;;;1.90;1.00;;;5.50;65.70;;;;;;5021454;28;46461;-66
2022/01/09 12:25:10;;;;;;;2.83;0.93;;;5.70;65.50;;;;;;5023123;28;46302;-65
2022/01/09 12:27:35;;;;;;;3.50;0.90;;;5.70;65.50;;;;;;5021794;28;46435;-66
2022/01/09 12:30:06;;;;;;;3.03;1.27;;;5.80;65.50;;;;;;5014579;28;46700;-65
2022/01/09 12:32:43;;;;;;;4.37;1.20;;;5.90;65.40;;;;;;5018149;28;48850;-66
2022/01/09 12:35:20;;;;;;;3.13;1.20;;;5.90;65.20;;;;;;5020825;28;46405;-65
2022/01/09 12:37:55;;;;;;;3.77;1.30;;;6.20;64.80;;;;;;5020622;28;46496;-65
2022/01/09 12:40:25;;;;;;;3.13;1.03;;;6.50;64.00;;;;;;5019460;28;46583;-64
2022/01/09 12:42:56;;;;;;;4.80;1.00;;;6.60;63.30;;;;;;5019132;28;46471;-66
2022/01/09 12:45:43;;;;;;;1.60;0.80;;;6.50;63.30;;;;;;5020117;28;46433;-66
2022/01/09 12:48:20;;;;;;;7.53;1.53;;;6.50;63.50;;;;;;5020412;28;46193;-65
2022/01/09 12:50:48;;;;;;;12.57;1.20;;;6.50;63.70;;;;;;5019182;28;46657;-66
2022/01/09 12:53:21;;;;;;;2.80;1.00;;;6.70;63.60;;;;;;5019587;28;47780;-66
2022/01/09 12:56:08;;;;;;;4.00;1.13;;;6.70;63.50;;;;;;5020525;28;46437;-63
2022/01/09 12:58:38;;;;;;;4.60;1.07;;;6.60;63.70;;;;;;5018510;28;46457;-65
2022/01/09 13:01:20;;;;;;;2.33;1.20;;;6.60;63.80;;;;;;5020913;28;46600;-66
2022/01/09 13:03:54;;;;;;;4.60;1.20;;;6.40;63.80;;;;;;5019232;28;48026;-65
2022/01/09 13:06:26;;;;;;;7.57;1.87;;;6.20;64.20;;;;;;5020873;28;45795;-64
2022/01/09 13:08:55;;;;;;;5.43;1.20;;;5.90;64.50;;;;;;5021548;28;46457;-66